createdAt,value
2024-01-29T00:01:44.453Z,9.84
2024-01-29T00:04:11.652Z,9.62
2024-01-29T00:06:38.467Z,9.64
2024-01-29T00:09:05.159Z,9.42
2024-01-29T00:11:34.509Z,9.50
2024-01-29T00:14:01.629Z,10.11
2024-01-29T00:16:29.051Z,9.93
2024-01-29T00:18:55.867Z,10.15
2024-01-29T00:21:23.352Z,10.28
2024-01-29T00:23:50.032Z,9.98
2024-01-29T00:26:16.705Z,10.01
2024-01-29T00:28:43.368Z,10.00
2024-01-29T00:31:10.772Z,10.51
2024-01-29T00:33:37.756Z,10.47
2024-01-29T00:36:05.302Z,10.35
2024-01-29T00:38:31.944Z,10.23
2024-01-29T00:40:58.646Z,9.97
2024-01-29T00:43:25.392Z,10.33
2024-01-29T00:45:52.111Z,10.50
2024-01-29T00:48:21.385Z,10.46
2024-01-29T00:50:48.029Z,10.62
2024-01-29T00:53:14.751Z,10.69
2024-01-29T00:55:43.952Z,10.53
2024-01-29T00:58:11.375Z,10.65
2024-01-29T01:00:39.843Z,10.61
2024-01-29T01:03:06.921Z,10.55
2024-01-29T01:05:34.941Z,10.12
2024-01-29T01:08:02.274Z,10.10
2024-01-29T01:10:28.952Z,10.71
2024-01-29T01:12:55.660Z,10.55
2024-01-29T01:15:22.511Z,10.59
2024-01-29T01:17:49.599Z,10.94
2024-01-29T01:20:16.400Z,11.41
2024-01-29T01:22:43.096Z,11.41
2024-01-29T01:25:10.216Z,11.36
2024-01-29T01:27:37.109Z,11.12
2024-01-29T01:30:04.346Z,10.96
2024-01-29T01:32:31.083Z,11.50
2024-01-29T01:34:57.875Z,11.48
2024-01-29T01:37:24.619Z,11.70
2024-01-29T01:39:54.312Z,11.51
2024-01-29T01:42:21.579Z,11.65
2024-01-29T01:44:48.764Z,11.85
2024-01-29T01:47:15.624Z,11.65
2024-01-29T01:49:42.434Z,12.21
2024-01-29T01:52:10.004Z,11.98
2024-01-29T01:54:38.221Z,11.87
2024-01-29T01:57:05.538Z,11.96
2024-01-29T01:59:36.844Z,11.53
2024-01-29T02:02:03.792Z,11.82
2024-01-29T02:04:30.818Z,12.34
2024-01-29T02:06:59.532Z,11.50
2024-01-29T02:09:27.014Z,11.72
2024-01-29T02:11:53.696Z,11.87
2024-01-29T02:14:20.332Z,12.28
2024-01-29T02:16:47.039Z,11.88
2024-01-29T02:19:17.277Z,11.95
2024-01-29T02:21:45.371Z,11.81
2024-01-29T02:24:12.358Z,12.20
2024-01-29T02:26:39.128Z,12.15
2024-01-29T02:29:05.888Z,12.41
2024-01-29T02:31:32.677Z,12.17
2024-01-29T02:33:59.652Z,12.36
2024-01-29T02:36:26.780Z,12.59
2024-01-29T02:38:53.411Z,12.94
2024-01-29T02:41:20.070Z,12.09
2024-01-29T02:43:46.680Z,12.22
2024-01-29T02:46:13.383Z,12.39
2024-01-29T02:48:40.606Z,12.00
2024-01-29T02:51:07.932Z,12.05
2024-01-29T02:53:34.745Z,11.89
2024-01-29T02:56:01.443Z,12.47
2024-01-29T02:58:28.136Z,12.05
2024-01-29T03:00:55.028Z,11.91
2024-01-29T03:03:21.921Z,12.19
2024-01-29T03:05:48.779Z,12.39
2024-01-29T03:08:15.609Z,12.62
2024-01-29T03:10:42.279Z,12.07
2024-01-29T03:13:09.033Z,12.49
2024-01-29T03:15:35.744Z,12.26
2024-01-29T03:18:02.521Z,12.53
2024-01-29T03:20:29.215Z,12.10
2024-01-29T03:22:55.867Z,12.24
2024-01-29T03:25:22.537Z,12.58
2024-01-29T03:27:49.261Z,12.43
2024-01-29T03:30:16.144Z,12.43
2024-01-29T03:32:43.030Z,12.47
2024-01-29T03:35:10.926Z,12.62
2024-01-29T03:37:37.690Z,12.51
2024-01-29T03:40:06.260Z,12.89
2024-01-29T03:42:32.950Z,11.97
2024-01-29T03:44:59.675Z,12.36
2024-01-29T03:47:26.552Z,12.49
2024-01-29T03:49:53.322Z,12.58
2024-01-29T03:52:20.127Z,12.67
2024-01-29T03:54:47.527Z,12.37
2024-01-29T03:57:14.275Z,12.46
2024-01-29T03:59:40.893Z,12.49
2024-01-29T04:02:07.517Z,12.85
2024-01-29T04:04:35.026Z,12.82
2024-01-29T04:07:01.941Z,12.94
2024-01-29T04:09:28.776Z,12.94
2024-01-29T04:11:55.729Z,12.37
2024-01-29T04:14:24.041Z,12.51
2024-01-29T04:16:51.844Z,12.46
2024-01-29T04:19:18.878Z,12.41
2024-01-29T04:21:46.048Z,12.39
2024-01-29T04:24:12.989Z,12.25
2024-01-29T04:26:42.917Z,12.63
2024-01-29T04:29:10.213Z,12.62
2024-01-29T04:31:37.208Z,12.69
2024-01-29T04:34:05.009Z,12.77
2024-01-29T04:36:32.165Z,12.80
2024-01-29T04:38:59.900Z,12.84
2024-01-29T04:41:26.668Z,12.62
2024-01-29T04:43:53.394Z,12.70
2024-01-29T04:46:20.042Z,13.26
2024-01-29T04:48:46.854Z,13.31
2024-01-29T04:51:13.677Z,13.14
2024-01-29T04:53:40.812Z,12.53
2024-01-29T04:56:08.131Z,13.08
2024-01-29T04:58:35.043Z,12.97
2024-01-29T05:01:02.586Z,13.41
2024-01-29T05:03:29.744Z,13.43
2024-01-29T05:05:57.353Z,13.41
2024-01-29T05:08:24.296Z,12.81
2024-01-29T05:10:51.077Z,12.63
2024-01-29T05:13:17.881Z,12.92
2024-01-29T05:15:44.990Z,12.96
2024-01-29T05:18:12.857Z,12.61
2024-01-29T05:20:39.752Z,13.13
2024-01-29T05:23:06.468Z,12.96
2024-01-29T05:25:34.067Z,13.16
2024-01-29T05:28:01.154Z,12.56
2024-01-29T05:30:27.919Z,12.70
2024-01-29T05:32:54.682Z,12.61
2024-01-29T05:35:21.510Z,12.49
2024-01-29T05:37:48.168Z,12.96
2024-01-29T05:40:14.896Z,12.70
2024-01-29T05:42:41.949Z,13.06
2024-01-29T05:45:08.951Z,12.65
2024-01-29T05:47:36.032Z,13.23
2024-01-29T05:50:06.842Z,13.17
2024-01-29T05:52:34.653Z,12.59
2024-01-29T05:55:01.393Z,12.68
2024-01-29T05:57:28.948Z,12.58
2024-01-29T05:59:56.067Z,12.81
2024-01-29T06:02:22.945Z,12.82
2024-01-29T06:04:49.683Z,13.32
2024-01-29T06:07:16.547Z,13.06
2024-01-29T06:09:43.382Z,13.08
2024-01-29T06:12:10.167Z,13.03
2024-01-29T06:14:37.320Z,13.42
2024-01-29T06:17:04.249Z,13.23
2024-01-29T06:19:31.638Z,12.89
2024-01-29T06:21:58.543Z,12.57
2024-01-29T06:24:25.242Z,12.99
2024-01-29T06:26:52.013Z,13.06
2024-01-29T06:29:18.621Z,12.98
2024-01-29T06:31:45.403Z,13.06
2024-01-29T06:34:12.276Z,13.32
2024-01-29T06:36:39.197Z,12.99
2024-01-29T06:39:08.335Z,13.10
2024-01-29T06:41:35.035Z,13.30
2024-01-29T06:44:01.760Z,13.17
2024-01-29T06:46:28.402Z,13.50
2024-01-29T06:48:55.241Z,12.89
2024-01-29T06:51:22.378Z,13.76
2024-01-29T06:53:49.104Z,12.87
2024-01-29T06:56:16.076Z,13.52
2024-01-29T06:58:43.369Z,13.14
2024-01-29T07:01:10.260Z,13.09
2024-01-29T07:03:37.281Z,12.97
2024-01-29T07:06:04.203Z,13.31
2024-01-29T07:08:30.972Z,13.34
2024-01-29T07:10:57.613Z,13.02
2024-01-29T07:13:24.530Z,12.73
2024-01-29T07:15:51.189Z,13.42
2024-01-29T07:18:19.168Z,13.48
2024-01-29T07:20:46.463Z,13.50
2024-01-29T07:23:13.295Z,13.12
2024-01-29T07:25:40.065Z,12.96
2024-01-29T07:28:07.505Z,13.42
2024-01-29T07:30:34.679Z,13.11
2024-01-29T07:33:02.537Z,13.51
2024-01-29T07:35:29.928Z,12.85
2024-01-29T07:37:56.734Z,13.00
2024-01-29T07:40:24.183Z,13.29
2024-01-29T07:42:51.211Z,13.13
2024-01-29T07:45:18.340Z,13.50
2024-01-29T07:47:46.050Z,13.26
2024-01-29T07:50:13.429Z,13.32
2024-01-29T07:52:40.139Z,13.00
2024-01-29T07:55:07.129Z,12.61
2024-01-29T07:57:33.989Z,13.30
2024-01-29T08:00:01.006Z,13.18
2024-01-29T08:02:28.262Z,13.13
2024-01-29T08:04:55.285Z,12.91
2024-01-29T08:07:22.920Z,13.63
2024-01-29T08:09:49.805Z,13.04
2024-01-29T08:12:16.945Z,13.26
2024-01-29T08:14:43.731Z,12.59
2024-01-29T08:17:10.462Z,12.49
2024-01-29T08:19:37.509Z,12.55
2024-01-29T08:22:04.996Z,12.71
2024-01-29T08:24:32.347Z,12.19
2024-01-29T08:26:59.106Z,12.47
2024-01-29T08:29:25.787Z,11.93
2024-01-29T08:31:52.959Z,12.74
2024-01-29T08:34:19.844Z,11.96
2024-01-29T08:36:46.662Z,12.62
2024-01-29T08:39:13.477Z,12.51
2024-01-29T08:41:40.215Z,12.38
2024-01-29T08:44:07.427Z,13.24
2024-01-29T08:46:34.898Z,12.84
2024-01-29T08:49:01.693Z,13.39
2024-01-29T08:51:28.405Z,12.83
2024-01-29T08:53:57.208Z,12.50
2024-01-29T08:56:23.935Z,12.81
2024-01-29T08:58:50.550Z,12.93
2024-01-29T09:01:17.366Z,12.74
2024-01-29T09:03:44.254Z,12.47
2024-01-29T09:06:11.298Z,12.45
2024-01-29T09:08:38.379Z,12.59
2024-01-29T09:11:05.411Z,12.71
2024-01-29T09:13:32.147Z,13.21
2024-01-29T09:15:59.596Z,12.20
2024-01-29T09:18:26.479Z,12.36
2024-01-29T09:20:53.203Z,12.60
2024-01-29T09:23:20.053Z,12.98
2024-01-29T09:25:46.748Z,12.44
2024-01-29T09:28:13.536Z,13.22
2024-01-29T09:30:42.010Z,12.77
2024-01-29T09:33:15.818Z,12.34
2024-01-29T09:35:48.192Z,12.21
2024-01-29T09:38:15.633Z,11.78
2024-01-29T09:40:46.490Z,12.44
2024-01-29T09:43:14.251Z,12.78
2024-01-29T09:45:41.521Z,12.47
2024-01-29T09:48:12.958Z,12.82
2024-01-29T09:50:41.431Z,12.71
2024-01-29T09:53:08.845Z,12.58
2024-01-29T09:55:35.594Z,13.02
2024-01-29T09:58:02.337Z,13.05
2024-01-29T10:00:32.998Z,12.64
2024-01-29T10:03:04.968Z,12.29
2024-01-29T10:05:32.416Z,13.32
2024-01-29T10:08:02.967Z,13.23
2024-01-29T10:10:29.788Z,13.35
2024-01-29T10:13:05.665Z,13.08
2024-01-29T10:15:32.678Z,13.77
2024-01-29T10:17:59.753Z,13.83
2024-01-29T10:20:26.658Z,13.64
2024-01-29T10:23:00.858Z,12.97
2024-01-29T10:25:33.713Z,13.10
2024-01-29T10:28:12.961Z,13.24
2024-01-29T10:30:40.721Z,13.13
2024-01-29T10:33:08.740Z,13.54
2024-01-29T10:35:37.306Z,13.68
2024-01-29T10:38:06.374Z,13.60
2024-01-29T10:40:34.813Z,13.52
2024-01-29T10:43:03.611Z,13.68
2024-01-29T10:45:36.696Z,14.16
2024-01-29T10:48:21.638Z,15.22
2024-01-29T10:50:50.106Z,13.69
2024-01-29T10:53:19.272Z,14.34
2024-01-29T10:55:50.174Z,14.32
2024-01-29T10:58:18.185Z,14.27
2024-01-29T11:00:46.441Z,13.78
2024-01-29T11:03:13.907Z,13.94
2024-01-29T11:05:47.067Z,15.17
2024-01-29T11:08:25.481Z,14.88
2024-01-29T11:10:52.878Z,14.58
2024-01-29T11:13:22.610Z,15.00
2024-01-29T11:15:49.658Z,15.36
2024-01-29T11:18:17.162Z,15.01
2024-01-29T11:20:45.260Z,14.31
2024-01-29T11:23:21.662Z,15.36
2024-01-29T11:25:52.349Z,15.15
2024-01-29T11:28:19.884Z,14.45
2024-01-29T11:30:51.340Z,14.80
2024-01-29T11:33:20.167Z,14.44
2024-01-29T11:35:50.539Z,14.94
2024-01-29T11:38:23.690Z,15.01
2024-01-29T11:40:51.034Z,15.23
2024-01-29T11:43:20.172Z,14.90
2024-01-29T11:45:52.348Z,14.51
2024-01-29T11:48:22.857Z,14.66
2024-01-29T11:50:52.660Z,14.79
2024-01-29T11:53:21.750Z,15.37
2024-01-29T11:55:49.712Z,15.61
2024-01-29T11:58:21.557Z,14.81
2024-01-29T12:00:51.001Z,16.51
2024-01-29T12:03:23.665Z,16.08
2024-01-29T12:05:52.943Z,15.50
2024-01-29T12:08:22.394Z,14.98
2024-01-29T12:10:49.936Z,16.02
2024-01-29T12:13:19.881Z,15.36
2024-01-29T12:15:47.830Z,15.92
2024-01-29T12:18:21.561Z,15.49
2024-01-29T12:20:49.455Z,16.37
2024-01-29T12:23:22.734Z,15.90
2024-01-29T12:25:55.024Z,15.39
2024-01-29T12:28:24.859Z,15.05
2024-01-29T12:31:00.599Z,15.51
2024-01-29T12:33:32.218Z,15.41
2024-01-29T12:36:14.702Z,14.99
2024-01-29T12:38:42.208Z,14.83
2024-01-29T12:41:09.245Z,13.60
2024-01-29T12:43:36.101Z,15.01
2024-01-29T12:46:07.450Z,14.45
2024-01-29T12:48:34.529Z,14.29
2024-01-29T12:51:01.590Z,14.41
2024-01-29T12:53:28.360Z,14.82
2024-01-29T12:55:55.169Z,14.62
2024-01-29T12:58:21.985Z,15.76
2024-01-29T13:00:50.107Z,15.40
2024-01-29T13:03:17.034Z,15.08
2024-01-29T13:05:44.167Z,14.18
2024-01-29T13:08:11.110Z,15.58
2024-01-29T13:10:38.495Z,15.15
2024-01-29T13:13:07.949Z,14.45
2024-01-29T13:15:35.857Z,14.43
2024-01-29T13:18:03.744Z,14.87
2024-01-29T13:20:31.330Z,15.37
2024-01-29T13:22:58.390Z,14.71
2024-01-29T13:25:25.343Z,15.08
2024-01-29T13:27:53.565Z,15.80
2024-01-29T13:30:20.557Z,16.06
2024-01-29T13:32:47.402Z,16.48
2024-01-29T13:35:14.404Z,16.79
2024-01-29T13:37:41.137Z,16.69
2024-01-29T13:40:08.858Z,16.26
2024-01-29T13:42:35.914Z,17.17
2024-01-29T13:45:03.012Z,17.63
2024-01-29T13:47:29.957Z,16.66
2024-01-29T13:49:57.693Z,16.58
2024-01-29T13:52:25.127Z,16.34
2024-01-29T13:54:51.966Z,16.47
2024-01-29T13:57:18.706Z,16.58
2024-01-29T13:59:46.456Z,16.10
2024-01-29T14:02:13.402Z,15.77
2024-01-29T14:04:40.181Z,15.93
2024-01-29T14:07:08.392Z,16.02
2024-01-29T14:09:36.137Z,15.66
2024-01-29T14:12:02.894Z,16.37
2024-01-29T14:14:34.607Z,16.34
2024-01-29T14:17:07.660Z,17.15
2024-01-29T14:19:35.500Z,16.65
2024-01-29T14:22:04.008Z,17.37
2024-01-29T14:24:32.785Z,17.26
2024-01-29T14:26:59.576Z,17.99
2024-01-29T14:29:26.290Z,17.73
2024-01-29T14:31:56.792Z,17.27
2024-01-29T14:34:24.731Z,17.05
2024-01-29T14:36:51.902Z,17.14
2024-01-29T14:39:20.437Z,17.32
2024-01-29T14:41:51.073Z,17.70
2024-01-29T14:44:18.319Z,17.29
2024-01-29T14:46:45.044Z,17.52
2024-01-29T14:49:11.849Z,17.56
2024-01-29T14:51:38.757Z,17.30
2024-01-29T14:54:05.533Z,17.49
2024-01-29T14:56:32.345Z,17.98
2024-01-29T14:59:00.114Z,18.42
2024-01-29T15:01:28.101Z,18.62
2024-01-29T15:03:55.370Z,18.46
2024-01-29T15:06:28.405Z,17.70
2024-01-29T15:08:55.238Z,18.16
2024-01-29T15:11:22.674Z,18.04
2024-01-29T15:13:49.837Z,18.41
2024-01-29T15:16:18.324Z,19.00
2024-01-29T15:18:46.832Z,18.12
2024-01-29T15:21:14.750Z,17.50
2024-01-29T15:23:41.491Z,17.38
2024-01-29T15:26:08.297Z,18.14
2024-01-29T15:28:35.050Z,18.07
2024-01-29T15:31:01.803Z,18.54
2024-01-29T15:33:28.573Z,17.63
2024-01-29T15:35:55.385Z,18.92
2024-01-29T15:38:22.047Z,18.72
2024-01-29T15:40:55.461Z,18.15
2024-01-29T15:43:22.398Z,18.24
2024-01-29T15:45:49.161Z,18.29
2024-01-29T15:48:16.069Z,18.25
2024-01-29T15:50:42.807Z,18.84
2024-01-29T15:53:09.661Z,18.17
2024-01-29T15:55:36.444Z,18.21
2024-01-29T15:58:04.267Z,18.92
2024-01-29T16:00:34.675Z,18.53
2024-01-29T16:03:02.384Z,18.38
2024-01-29T16:05:29.234Z,18.69
2024-01-29T16:07:56.183Z,19.19
2024-01-29T16:10:22.942Z,18.69
2024-01-29T16:12:49.678Z,18.94
2024-01-29T16:15:17.246Z,18.75
2024-01-29T16:17:44.066Z,19.52
2024-01-29T16:20:13.662Z,19.08
2024-01-29T16:22:41.206Z,18.95
2024-01-29T16:25:08.162Z,19.49
2024-01-29T16:27:35.006Z,19.47
2024-01-29T16:30:02.109Z,19.44
2024-01-29T16:32:28.860Z,19.57
2024-01-29T16:34:55.840Z,19.47
2024-01-29T16:37:22.637Z,19.32
2024-01-29T16:39:49.405Z,18.89
2024-01-29T16:42:16.076Z,19.37
2024-01-29T16:44:43.575Z,20.07
2024-01-29T16:47:10.938Z,19.84
2024-01-29T16:49:37.966Z,19.26
2024-01-29T16:52:06.314Z,19.60
2024-01-29T16:54:34.353Z,19.80
2024-01-29T16:57:05.581Z,20.05
2024-01-29T16:59:37.201Z,20.68
2024-01-29T17:02:05.316Z,20.49
2024-01-29T17:04:38.519Z,20.95
2024-01-29T17:07:06.041Z,20.29
2024-01-29T17:09:33.148Z,20.55
2024-01-29T17:12:00.117Z,20.22
2024-01-29T17:14:26.925Z,20.14
2024-01-29T17:16:53.726Z,20.14
2024-01-29T17:19:21.743Z,20.42
2024-01-29T17:21:48.677Z,20.54
2024-01-29T17:24:15.817Z,20.23
2024-01-29T17:26:44.939Z,20.60
2024-01-29T17:29:11.576Z,21.32
2024-01-29T17:31:39.878Z,21.41
2024-01-29T17:34:06.789Z,21.50
2024-01-29T17:36:34.102Z,21.35
2024-01-29T17:39:01.296Z,21.50
2024-01-29T17:41:28.360Z,21.60
2024-01-29T17:43:55.165Z,21.22
2024-01-29T17:46:22.235Z,21.17
2024-01-29T17:48:49.038Z,20.96
2024-01-29T17:51:15.763Z,20.92
2024-01-29T17:53:44.315Z,21.24
2024-01-29T17:56:11.148Z,20.82
2024-01-29T17:58:37.807Z,21.19
2024-01-29T18:01:04.758Z,20.54
2024-01-29T18:03:31.564Z,21.02
2024-01-29T18:05:58.890Z,20.94
2024-01-29T18:08:28.946Z,21.26
2024-01-29T18:10:55.672Z,20.52
2024-01-29T18:13:22.564Z,20.35
2024-01-29T18:15:49.486Z,20.93
2024-01-29T18:18:16.452Z,21.52
2024-01-29T18:20:43.296Z,21.81
2024-01-29T18:23:12.370Z,23.24
2024-01-29T18:25:40.311Z,23.68
2024-01-29T18:28:07.296Z,23.40
2024-01-29T18:30:34.397Z,22.25
2024-01-29T18:33:01.302Z,24.98
2024-01-29T18:35:27.979Z,26.06
2024-01-29T18:37:54.700Z,27.60
2024-01-29T18:40:21.448Z,27.04
2024-01-29T18:42:48.363Z,27.42
2024-01-29T18:45:15.267Z,27.58
2024-01-29T18:47:41.955Z,26.56
2024-01-29T18:50:09.191Z,25.39
2024-01-29T18:52:35.966Z,26.15
2024-01-29T18:55:02.745Z,24.55
2024-01-29T18:57:29.508Z,25.06
2024-01-29T18:59:56.487Z,23.77
2024-01-29T19:02:23.180Z,23.51
2024-01-29T19:04:51.278Z,23.81
2024-01-29T19:07:19.816Z,23.56
2024-01-29T19:09:46.683Z,23.90
2024-01-29T19:12:13.373Z,24.37
2024-01-29T19:14:40.142Z,23.39
2024-01-29T19:17:06.887Z,24.12
2024-01-29T19:19:33.766Z,23.74
2024-01-29T19:22:00.534Z,24.62
2024-01-29T19:24:27.301Z,23.80
2024-01-29T19:26:54.096Z,24.44
2024-01-29T19:29:21.856Z,23.31
2024-01-29T19:31:49.581Z,24.80
2024-01-29T19:34:16.504Z,24.92
2024-01-29T19:36:43.889Z,25.41
2024-01-29T19:39:11.531Z,25.60
2024-01-29T19:41:39.302Z,25.18
2024-01-29T19:44:07.923Z,26.05
2024-01-29T19:46:43.189Z,25.59
2024-01-29T19:49:10.048Z,25.42
2024-01-29T19:51:36.842Z,25.78
2024-01-29T19:54:03.618Z,25.97
2024-01-29T19:56:30.249Z,25.33
2024-01-29T19:58:57.662Z,24.61
2024-01-29T20:01:24.948Z,24.60
2024-01-29T20:03:51.798Z,24.78
2024-01-29T20:06:18.622Z,24.21
2024-01-29T20:08:45.380Z,24.73
2024-01-29T20:11:12.037Z,23.76
2024-01-29T20:13:40.696Z,24.00
2024-01-29T20:16:07.805Z,24.14
2024-01-29T20:18:39.698Z,24.32
2024-01-29T20:21:13.815Z,23.18
2024-01-29T20:23:42.547Z,23.08
2024-01-29T20:26:09.326Z,22.04
2024-01-29T20:28:39.273Z,23.79
2024-01-29T20:31:06.447Z,23.83
2024-01-29T20:33:35.453Z,23.03
2024-01-29T20:36:02.303Z,22.94
2024-01-29T20:38:28.974Z,23.53
2024-01-29T20:40:55.751Z,23.95
2024-01-29T20:43:22.445Z,24.33
2024-01-29T20:45:49.656Z,23.92
2024-01-29T20:48:16.509Z,23.91
2024-01-29T20:50:43.831Z,23.31
2024-01-29T20:53:10.789Z,23.50
2024-01-29T20:55:37.936Z,24.36
2024-01-29T20:58:05.523Z,23.78
2024-01-29T21:00:32.569Z,23.35
2024-01-29T21:03:00.706Z,23.63
2024-01-29T21:05:27.421Z,23.82
2024-01-29T21:07:54.876Z,23.52
2024-01-29T21:10:21.852Z,24.00
2024-01-29T21:12:48.869Z,24.41
2024-01-29T21:15:16.002Z,22.87
2024-01-29T21:17:42.885Z,24.05
2024-01-29T21:20:12.904Z,23.90
2024-01-29T21:22:39.633Z,24.40
2024-01-29T21:25:12.400Z,23.50
2024-01-29T21:27:40.095Z,23.47
2024-01-29T21:30:11.710Z,23.64
2024-01-29T21:32:38.871Z,24.24
2024-01-29T21:35:06.022Z,23.12
2024-01-29T21:37:33.490Z,23.42
2024-01-29T21:40:01.096Z,23.88
2024-01-29T21:42:27.895Z,23.13
2024-01-29T21:44:54.543Z,23.69
2024-01-29T21:47:21.235Z,23.28
2024-01-29T21:49:48.058Z,22.86
2024-01-29T21:52:15.399Z,22.88
2024-01-29T21:54:42.184Z,22.38
2024-01-29T21:57:08.873Z,22.43
2024-01-29T21:59:36.865Z,22.14
2024-01-29T22:02:06.883Z,21.28
2024-01-29T22:04:36.816Z,22.52
2024-01-29T22:07:04.558Z,21.34
2024-01-29T22:09:31.386Z,21.93
2024-01-29T22:11:58.127Z,21.32
2024-01-29T22:14:24.845Z,22.22
2024-01-29T22:16:51.529Z,21.28
2024-01-29T22:19:18.334Z,21.46
2024-01-29T22:21:55.136Z,22.08
2024-01-29T22:24:23.006Z,21.57
2024-01-29T22:26:50.666Z,21.37
2024-01-29T22:29:17.696Z,21.61
2024-01-29T22:31:44.486Z,21.23
2024-01-29T22:34:12.200Z,21.73
2024-01-29T22:36:40.392Z,21.77
2024-01-29T22:39:08.586Z,21.50
2024-01-29T22:41:35.696Z,22.21
2024-01-29T22:44:02.387Z,21.25
2024-01-29T22:46:29.104Z,21.81
2024-01-29T22:48:57.159Z,21.26
2024-01-29T22:51:25.428Z,21.10
2024-01-29T22:53:52.185Z,20.90
2024-01-29T22:56:19.464Z,21.45
2024-01-29T22:58:46.236Z,20.77
2024-01-29T23:01:13.174Z,21.65
2024-01-29T23:03:39.973Z,21.30
2024-01-29T23:06:06.751Z,21.25
2024-01-29T23:08:34.089Z,21.63
2024-01-29T23:11:00.844Z,21.82
2024-01-29T23:13:27.804Z,21.69
2024-01-29T23:15:54.565Z,21.68
2024-01-29T23:18:21.371Z,21.66
2024-01-29T23:20:48.149Z,21.58
2024-01-29T23:23:14.898Z,21.17
2024-01-29T23:25:41.638Z,21.40
2024-01-29T23:28:08.684Z,21.82
2024-01-29T23:30:35.537Z,21.42
2024-01-29T23:33:02.663Z,20.78
2024-01-29T23:35:30.730Z,20.30
2024-01-29T23:37:58.240Z,20.51
2024-01-29T23:40:25.352Z,21.09
2024-01-29T23:42:52.155Z,21.63
2024-01-29T23:45:18.872Z,21.47
2024-01-29T23:47:45.553Z,21.22
2024-01-29T23:50:12.347Z,21.64
2024-01-29T23:52:39.188Z,21.69
2024-01-29T23:55:06.345Z,21.49
2024-01-29T23:57:33.138Z,21.85
2024-01-29T23:59:59.822Z,21.73
